Time;durP1;ratioP1;P1;durP2;ratioP2;P2;SDS_P1;SDS_P2;PMS_P1;PMS_P2;Temp;Humidity;BMP_temperature;BMP_pressure;BME280_temperature;BME280_humidity;BME280_pressure;Samples;Min_cycle;Max_cycle;Signal;HPM_P1;HPM_P2
2023/04/04 00:00:41;;;;;;;3.63;1.40;;;4.70;89.00;;;;;;5043716;28;20040;-43
2023/04/04 00:03:06;;;;;;;3.80;1.40;;;4.60;89.10;;;;;;5043493;28;20044;-43
2023/04/04 00:05:34;;;;;;;2.72;1.58;;;4.60;89.20;;;;;;5042775;28;20021;-43
2023/04/04 00:07:59;;;;;;;3.33;1.60;;;4.60;89.30;;;;;;5042934;28;20025;-41
2023/04/04 00:10:26;;;;;;;3.05;1.73;;;4.60;89.30;;;;;;5043996;28;20071;-43
2023/04/04 00:12:51;;;;;;;3.00;1.80;;;4.60;89.30;;;;;;5042719;28;20040;-44
2023/04/04 00:15:17;;;;;;;2.30;1.58;;;4.60;89.30;;;;;;5042871;28;20823;-42
2023/04/04 00:17:43;;;;;;;2.70;1.60;;;4.50;89.40;;;;;;5043326;28;20048;-42
2023/04/04 00:20:09;;;;;;;1.90;1.60;;;4.50;89.50;;;;;;5042366;28;20028;-43
2023/04/04 00:22:34;;;;;;;2.22;1.60;;;4.50;89.60;;;;;;5042990;28;20056;-42
2023/04/04 00:25:00;;;;;;;2.67;1.80;;;4.40;89.70;;;;;;5043375;28;20032;-42
2023/04/04 00:27:25;;;;;;;2.90;1.65;;;4.40;89.90;;;;;;5041806;28;20056;-43
2023/04/04 00:29:51;;;;;;;2.53;1.65;;;4.40;90.00;;;;;;5042918;28;20029;-43
2023/04/04 00:32:16;;;;;;;2.47;1.50;;;4.40;90.00;;;;;;5042642;28;20041;-42
2023/04/04 00:34:42;;;;;;;3.78;2.00;;;4.30;90.00;;;;;;5042315;28;20135;-41
2023/04/04 00:37:11;;;;;;;2.83;1.67;;;4.30;90.10;;;;;;5042425;28;20103;-43
2023/04/04 00:39:36;;;;;;;3.85;1.63;;;4.30;90.20;;;;;;5043198;28;20561;-43
2023/04/04 00:42:03;;;;;;;2.53;1.70;;;4.30;90.20;;;;;;5041692;28;20032;-43
2023/04/04 00:44:30;;;;;;;2.47;1.60;;;4.30;90.20;;;;;;5042687;28;20029;-43
2023/04/04 00:46:56;;;;;;;5.28;1.70;;;4.20;90.20;;;;;;5041848;28;20060;-43
2023/04/04 00:49:22;;;;;;;2.80;1.92;;;4.30;90.30;;;;;;5042204;28;20143;-42
2023/04/04 00:51:48;;;;;;;3.45;2.45;;;4.20;90.30;;;;;;5042595;28;20087;-43
2023/04/04 00:54:13;;;;;;;2.75;1.92;;;4.20;90.40;;;;;;5041590;28;20037;-43
2023/04/04 00:56:39;;;;;;;3.72;2.10;;;4.20;90.40;;;;;;5042556;28;20134;-42
2023/04/04 00:59:06;;;;;;;4.60;2.03;;;4.10;90.40;;;;;;5041301;28;20017;-43
2023/04/04 01:01:32;;;;;;;3.65;1.67;;;4.10;90.50;;;;;;5042108;28;20473;-42
2023/04/04 01:03:57;;;;;;;2.85;1.90;;;4.10;90.60;;;;;;5042382;28;20105;-42
2023/04/04 01:06:23;;;;;;;2.35;1.73;;;4.10;90.60;;;;;;5042559;28;20033;-42
2023/04/04 01:08:51;;;;;;;3.40;2.10;;;4.00;90.70;;;;;;5042043;28;20021;-43
2023/04/04 01:11:17;;;;;;;3.05;2.10;;;4.00;90.80;;;;;;5041584;28;20526;-43
2023/04/04 01:13:43;;;;;;;3.20;1.88;;;4.00;90.80;;;;;;5041900;28;20025;-42
2023/04/04 01:16:08;;;;;;;5.72;2.20;;;4.00;90.90;;;;;;5041409;28;20041;-43
2023/04/04 01:18:36;;;;;;;2.33;1.88;;;3.90;90.90;;;;;;5041978;28;20039;-42
2023/04/04 01:21:05;;;;;;;3.20;2.20;;;3.90;91.00;;;;;;5041866;28;20608;-42
2023/04/04 01:24:01;;;;;;;5.13;2.08;;;3.90;91.10;;;;;;5041180;28;20546;-42
2023/04/04 01:26:27;;;;;;;3.55;2.28;;;3.90;91.10;;;;;;5029989;28;20755;-42
2023/04/04 01:28:54;;;;;;;3.33;2.10;;;3.90;91.10;;;;;;5042118;28;20388;-43
2023/04/04 01:31:48;;;;;;;5.43;2.00;;;3.90;91.20;;;;;;5040589;28;20048;-42
2023/04/04 01:34:27;;;;;;;3.17;1.70;;;3.80;91.30;;;;;;5040569;28;20025;-42
2023/04/04 01:37:05;;;;;;;3.40;2.03;;;3.80;91.30;;;;;;5041467;28;20373;-43
2023/04/04 01:39:38;;;;;;;3.88;1.90;;;3.80;91.40;;;;;;5042345;28;20024;-42
2023/04/04 01:42:06;;;;;;;3.05;2.08;;;3.80;91.40;;;;;;5041944;28;20065;-43
2023/04/04 01:44:32;;;;;;;2.05;1.83;;;3.80;91.50;;;;;;5041508;28;20025;-44
2023/04/04 01:46:58;;;;;;;3.83;2.40;;;3.70;91.50;;;;;;5041699;28;20071;-43
2023/04/04 01:49:23;;;;;;;2.97;1.88;;;3.70;91.60;;;;;;5042184;28;20025;-43
2023/04/04 01:51:52;;;;;;;3.03;2.22;;;3.70;91.70;;;;;;5041028;28;20035;-43
2023/04/04 01:54:18;;;;;;;3.10;2.47;;;3.70;91.70;;;;;;5040940;28;20025;-42
2023/04/04 01:56:45;;;;;;;4.28;2.10;;;3.70;91.80;;;;;;5041432;28;20031;-42
2023/04/04 01:59:10;;;;;;;2.88;2.00;;;3.70;91.90;;;;;;5040197;28;20055;-42
2023/04/04 02:01:37;;;;;;;3.13;1.90;;;3.60;91.90;;;;;;5040951;28;20021;-42
2023/04/04 02:04:03;;;;;;;2.25;1.88;;;3.60;91.90;;;;;;5041200;28;20028;-42
2023/04/04 02:06:29;;;;;;;2.47;1.90;;;3.60;92.00;;;;;;5041695;28;20714;-42
2023/04/04 02:08:55;;;;;;;3.55;1.92;;;3.60;92.00;;;;;;5041918;28;20449;-42
2023/04/04 02:11:23;;;;;;;2.83;2.03;;;3.60;92.10;;;;;;5040297;28;20068;-42
2023/04/04 02:13:49;;;;;;;2.53;1.90;;;3.50;92.10;;;;;;5041889;28;20033;-43
2023/04/04 02:16:14;;;;;;;2.35;1.80;;;3.60;92.20;;;;;;5040372;28;20025;-42
2023/04/04 02:18:40;;;;;;;3.08;1.60;;;3.50;92.20;;;;;;5040690;28;20510;-43
2023/04/04 02:21:06;;;;;;;2.40;2.20;;;3.50;92.30;;;;;;5040375;28;20047;-43
2023/04/04 02:23:32;;;;;;;2.58;1.58;;;3.50;92.30;;;;;;5040994;28;20039;-42
2023/04/04 02:25:57;;;;;;;2.25;1.75;;;3.50;92.40;;;;;;5040431;28;20538;-43
2023/04/04 02:28:23;;;;;;;3.15;2.00;;;3.50;92.40;;;;;;5041155;28;20068;-42
2023/04/04 02:30:49;;;;;;;1.88;1.67;;;3.40;92.50;;;;;;5041484;28;20027;-44
2023/04/04 02:33:17;;;;;;;2.90;1.73;;;3.40;92.50;;;;;;5040030;28;20857;-43
2023/04/04 02:35:43;;;;;;;2.33;1.83;;;3.40;92.60;;;;;;5041159;28;20056;-42
2023/04/04 02:38:08;;;;;;;2.05;1.42;;;3.40;92.60;;;;;;5040327;28;20136;-43
2023/04/04 02:40:38;;;;;;;2.58;1.83;;;3.30;92.70;;;;;;5040791;28;20025;-43
2023/04/04 02:43:04;;;;;;;5.93;1.92;;;3.30;92.70;;;;;;5040411;28;20089;-43
2023/04/04 02:45:29;;;;;;;4.28;1.75;;;3.30;92.70;;;;;;5041601;28;20759;-42
2023/04/04 02:47:55;;;;;;;1.85;1.60;;;3.30;92.80;;;;;;5039654;28;20916;-43
2023/04/04 02:50:21;;;;;;;2.58;1.50;;;3.30;92.90;;;;;;5039953;28;20025;-42
2023/04/04 02:52:46;;;;;;;2.95;1.80;;;3.20;92.90;;;;;;5041063;28;20029;-43
2023/04/04 02:55:12;;;;;;;3.33;1.88;;;3.20;92.90;;;;;;5039092;28;20017;-43
2023/04/04 02:57:37;;;;;;;1.70;1.60;;;3.20;93.00;;;;;;5040299;28;20028;-43
2023/04/04 03:00:03;;;;;;;2.50;1.75;;;3.20;93.10;;;;;;5040502;28;20040;-43
2023/04/04 03:02:29;;;;;;;2.55;1.80;;;3.10;93.20;;;;;;5039803;28;20108;-43
2023/04/04 03:04:55;;;;;;;2.38;1.67;;;3.10;93.40;;;;;;5041023;28;20838;-42
2023/04/04 03:07:21;;;;;;;2.88;2.00;;;3.10;93.50;;;;;;5040341;28;20112;-42
2023/04/04 03:09:47;;;;;;;2.28;1.83;;;3.00;93.70;;;;;;5040040;28;20033;-42
2023/04/04 03:12:19;;;;;;;3.40;1.80;;;3.00;93.80;;;;;;5040074;28;20435;-43
2023/04/04 03:14:44;;;;;;;3.08;1.92;;;2.90;93.90;;;;;;5033076;28;20040;-41
2023/04/04 03:17:13;;;;;;;2.95;1.77;;;2.90;94.10;;;;;;5043406;28;20025;-43
2023/04/04 03:19:39;;;;;;;2.58;1.88;;;2.80;94.20;;;;;;5044230;28;20704;-43
2023/04/04 03:22:04;;;;;;;3.92;1.83;;;2.80;94.20;;;;;;5042967;28;20036;-43
2023/04/04 03:24:30;;;;;;;3.55;2.08;;;2.80;94.40;;;;;;5044657;28;20017;-43
2023/04/04 03:26:56;;;;;;;3.55;1.70;;;2.80;94.50;;;;;;5044410;28;20025;-43
2023/04/04 03:29:21;;;;;;;2.03;1.63;;;2.70;94.60;;;;;;5043030;28;20028;-43
2023/04/04 03:31:47;;;;;;;2.15;1.73;;;2.70;94.70;;;;;;5045186;28;20033;-42
2023/04/04 03:34:12;;;;;;;2.50;1.73;;;2.70;94.80;;;;;;5043028;28;20028;-43
2023/04/04 03:36:38;;;;;;;2.22;1.52;;;2.60;94.90;;;;;;5043474;28;20424;-43
2023/04/04 03:39:03;;;;;;;2.40;1.70;;;2.60;94.90;;;;;;5043297;28;20575;-42
2023/04/04 03:41:29;;;;;;;3.50;2.00;;;2.60;95.00;;;;;;5044108;28;20039;-43
2023/04/04 03:43:57;;;;;;;2.80;1.90;;;2.60;95.10;;;;;;5043383;28;20079;-42
2023/04/04 03:46:24;;;;;;;4.28;1.92;;;2.60;95.10;;;;;;5043209;28;20049;-43
2023/04/04 03:48:49;;;;;;;2.78;1.67;;;2.60;95.00;;;;;;5043873;28;20031;-42
2023/04/04 03:51:22;;;;;;;3.30;2.22;;;2.60;95.00;;;;;;5042539;28;20025;-44
2023/04/04 03:53:47;;;;;;;1.60;1.50;;;2.70;95.00;;;;;;5044168;28;20028;-44
2023/04/04 03:56:13;;;;;;;2.60;1.95;;;2.60;95.00;;;;;;5043592;28;20071;-44
2023/04/04 03:58:39;;;;;;;3.70;2.15;;;2.60;95.10;;;;;;5042489;28;20768;-44
2023/04/04 04:01:04;;;;;;;1.95;1.75;;;2.50;95.10;;;;;;5042649;28;20021;-42
2023/04/04 04:03:30;;;;;;;2.17;1.60;;;2.60;95.30;;;;;;5043887;28;20595;-43
2023/04/04 04:05:56;;;;;;;2.75;1.92;;;2.50;95.30;;;;;;5043247;28;20884;-42
2023/04/04 04:08:21;;;;;;;2.85;1.85;;;2.50;95.40;;;;;;5044033;28;20024;-43
2023/04/04 04:10:47;;;;;;;3.55;1.70;;;2.50;95.50;;;;;;5043289;28;20025;-42
2023/04/04 04:13:12;;;;;;;3.35;2.08;;;2.40;95.60;;;;;;5043131;28;20098;-43
2023/04/04 04:15:38;;;;;;;4.13;2.10;;;2.40;95.70;;;;;;5043468;28;20086;-42
2023/04/04 04:18:04;;;;;;;2.72;2.20;;;2.40;95.80;;;;;;5042034;28;20102;-43
2023/04/04 04:20:30;;;;;;;3.30;2.03;;;2.40;95.90;;;;;;5043109;28;20074;-43
2023/04/04 04:22:55;;;;;;;2.83;1.92;;;2.30;96.00;;;;;;5042982;28;20416;-42
2023/04/04 04:25:21;;;;;;;2.65;1.90;;;2.30;96.10;;;;;;5041002;28;20031;-43
2023/04/04 04:27:46;;;;;;;3.33;2.20;;;2.30;96.20;;;;;;5043016;28;20060;-42
2023/04/04 04:30:12;;;;;;;4.00;2.40;;;2.20;96.30;;;;;;5042404;28;20087;-42
2023/04/04 04:32:38;;;;;;;3.22;2.40;;;2.20;96.40;;;;;;5042126;28;20095;-42
2023/04/04 04:35:04;;;;;;;3.47;2.35;;;2.20;96.40;;;;;;5042592;28;20021;-43
2023/04/04 04:37:29;;;;;;;4.57;2.20;;;2.20;96.50;;;;;;5043697;28;20451;-43
2023/04/04 04:39:55;;;;;;;3.38;2.30;;;2.20;96.60;;;;;;5042692;28;20025;-42
2023/04/04 04:42:21;;;;;;;2.40;2.05;;;2.20;96.60;;;;;;5043159;28;20031;-43
2023/04/04 04:44:47;;;;;;;2.80;2.22;;;2.20;96.70;;;;;;5042989;28;20518;-43
2023/04/04 04:47:12;;;;;;;2.80;2.15;;;2.20;96.80;;;;;;5040772;28;20045;-43
2023/04/04 04:49:38;;;;;;;5.10;2.55;;;2.20;96.90;;;;;;5043058;28;20045;-43
2023/04/04 04:52:03;;;;;;;3.00;2.15;;;2.10;97.00;;;;;;5041445;28;20494;-42
2023/04/04 04:54:29;;;;;;;5.47;2.03;;;2.10;97.10;;;;;;5042432;28;20059;-42
2023/04/04 04:56:59;;;;;;;3.72;2.15;;;2.10;97.20;;;;;;5042254;28;20408;-42
2023/04/04 04:59:24;;;;;;;3.63;2.10;;;2.10;97.30;;;;;;5041602;28;20033;-43
2023/04/04 05:01:50;;;;;;;5.07;2.70;;;2.10;97.40;;;;;;5041300;28;20629;-43
2023/04/04 05:04:16;;;;;;;2.38;2.17;;;2.00;97.50;;;;;;5041523;28;20021;-43
2023/04/04 05:06:42;;;;;;;3.63;2.20;;;2.00;97.60;;;;;;5042781;28;20033;-43
2023/04/04 05:09:07;;;;;;;2.22;1.70;;;2.00;97.60;;;;;;5041151;28;20029;-43
2023/04/04 05:11:33;;;;;;;2.75;2.35;;;2.00;97.70;;;;;;5042449;28;20024;-42
2023/04/04 05:13:59;;;;;;;4.07;1.80;;;2.00;97.70;;;;;;5041855;28;20574;-43
2023/04/04 05:16:24;;;;;;;2.40;2.20;;;2.00;97.80;;;;;;5041190;28;20590;-43
2023/04/04 05:18:53;;;;;;;3.97;2.42;;;1.90;97.90;;;;;;5042289;28;20149;-43
2023/04/04 05:21:18;;;;;;;4.25;2.60;;;1.90;97.90;;;;;;5040441;28;20717;-43
2023/04/04 05:23:44;;;;;;;4.80;3.17;;;1.90;98.00;;;;;;5042025;28;20510;-43
2023/04/04 05:26:09;;;;;;;3.17;2.55;;;1.80;98.10;;;;;;5041440;28;20029;-42
2023/04/04 05:28:35;;;;;;;4.20;2.55;;;1.90;98.20;;;;;;5041917;28;20029;-43
2023/04/04 05:31:01;;;;;;;3.85;2.60;;;1.90;98.20;;;;;;5042059;28;20024;-42
2023/04/04 05:33:26;;;;;;;4.95;2.88;;;1.90;98.30;;;;;;5039111;28;20017;-43
2023/04/04 05:35:52;;;;;;;4.07;2.58;;;1.90;98.30;;;;;;5040269;28;20035;-43
2023/04/04 05:38:17;;;;;;;3.63;2.40;;;1.90;98.40;;;;;;5037919;28;20107;-43
2023/04/04 05:40:44;;;;;;;3.40;2.40;;;1.80;98.40;;;;;;5039754;28;20167;-42
2023/04/04 05:43:10;;;;;;;3.83;2.50;;;1.80;98.50;;;;;;5039935;28;20104;-43
2023/04/04 05:45:35;;;;;;;2.97;2.20;;;1.80;98.70;;;;;;5040800;28;20029;-43
2023/04/04 05:48:01;;;;;;;4.75;2.72;;;1.80;98.80;;;;;;5040266;28;20080;-42
2023/04/04 05:50:27;;;;;;;3.20;2.30;;;1.80;98.80;;;;;;5039650;28;20330;-43
2023/04/04 05:52:54;;;;;;;3.67;2.72;;;1.80;98.80;;;;;;5041414;28;20503;-42
2023/04/04 05:55:20;;;;;;;3.70;2.50;;;1.80;98.90;;;;;;5040411;28;20025;-43
2023/04/04 05:57:49;;;;;;;6.15;2.60;;;1.80;99.00;;;;;;5040773;28;20024;-43
2023/04/04 06:00:16;;;;;;;3.78;2.53;;;1.80;99.10;;;;;;5028962;28;20103;-42
2023/04/04 06:02:42;;;;;;;6.03;2.42;;;1.80;99.10;;;;;;5041082;28;20029;-42
2023/04/04 06:05:08;;;;;;;3.08;2.78;;;1.80;99.20;;;;;;5039373;28;20763;-44
2023/04/04 06:07:33;;;;;;;5.63;2.70;;;1.80;99.30;;;;;;5041437;28;20074;-42
2023/04/04 06:09:59;;;;;;;5.40;3.22;;;1.80;99.40;;;;;;5040173;28;20032;-41
2023/04/04 06:12:24;;;;;;;3.08;2.70;;;1.80;99.50;;;;;;5039402;28;20083;-43
2023/04/04 06:14:50;;;;;;;4.03;2.67;;;1.90;99.60;;;;;;5040523;28;20024;-42
2023/04/04 06:17:15;;;;;;;3.78;2.72;;;1.90;99.60;;;;;;5038784;28;20490;-43
2023/04/04 06:19:41;;;;;;;4.78;2.78;;;2.00;99.60;;;;;;5039833;28;20071;-43
2023/04/04 06:22:06;;;;;;;3.72;2.60;;;2.10;99.60;;;;;;5039352;28;20440;-43
2023/04/04 06:24:32;;;;;;;3.78;2.58;;;2.10;99.60;;;;;;5039522;28;20076;-43
2023/04/04 06:26:58;;;;;;;3.95;2.45;;;2.20;99.60;;;;;;5039706;28;20037;-43
2023/04/04 06:29:25;;;;;;;4.47;2.75;;;2.30;99.60;;;;;;5039697;28;20024;-43
2023/04/04 06:31:50;;;;;;;3.72;2.60;;;2.40;99.50;;;;;;5039203;28;20029;-43
2023/04/04 06:34:16;;;;;;;3.53;2.60;;;2.40;99.60;;;;;;5039903;28;20020;-44
2023/04/04 06:36:41;;;;;;;3.50;2.50;;;2.40;99.60;;;;;;5040580;28;20024;-43
2023/04/04 06:39:07;;;;;;;3.80;2.75;;;2.50;99.60;;;;;;5039945;28;20119;-44
2023/04/04 06:41:32;;;;;;;3.13;2.38;;;2.50;99.80;;;;;;5041125;28;20286;-43
2023/04/04 06:44:01;;;;;;;3.55;3.03;;;2.60;99.60;;;;;;5040086;28;20823;-43
2023/04/04 06:46:29;;;;;;;5.15;2.80;;;2.70;99.60;;;;;;5036822;28;20144;-42
2023/04/04 06:48:54;;;;;;;3.45;2.30;;;2.70;99.60;;;;;;5039294;28;20037;-42
2023/04/04 06:51:20;;;;;;;4.20;2.88;;;2.80;99.60;;;;;;5037143;28;20043;-43
2023/04/04 06:53:46;;;;;;;3.40;2.40;;;2.90;99.60;;;;;;5040592;28;20029;-42
2023/04/04 06:56:11;;;;;;;3.58;2.35;;;3.00;99.50;;;;;;5039868;28;20491;-43
2023/04/04 06:58:40;;;;;;;3.38;2.67;;;3.10;99.50;;;;;;5040791;28;20028;-43
2023/04/04 07:01:06;;;;;;;3.00;2.40;;;3.20;99.40;;;;;;5039320;28;20557;-43
2023/04/04 07:03:31;;;;;;;3.15;2.22;;;3.30;99.30;;;;;;5040632;28;20021;-42
2023/04/04 07:05:57;;;;;;;3.50;2.10;;;3.40;99.30;;;;;;5039956;28;20021;-43
2023/04/04 07:08:22;;;;;;;4.40;2.33;;;3.50;99.30;;;;;;5039561;28;20017;-43
2023/04/04 07:10:48;;;;;;;3.60;2.00;;;3.60;99.30;;;;;;5040560;28;20387;-44
2023/04/04 07:13:14;;;;;;;4.93;2.17;;;3.70;99.20;;;;;;5039498;28;20392;-44
2023/04/04 07:15:40;;;;;;;3.92;2.75;;;3.80;99.10;;;;;;5040783;28;20723;-44
2023/04/04 07:18:06;;;;;;;3.40;2.45;;;3.90;99.00;;;;;;5039725;28;20077;-43
2023/04/04 07:20:32;;;;;;;3.08;2.03;;;3.90;98.90;;;;;;5040036;28;20132;-43
2023/04/04 07:22:57;;;;;;;5.65;1.92;;;4.00;98.90;;;;;;5039513;28;20028;-43
2023/04/04 07:25:23;;;;;;;3.70;2.10;;;4.00;98.90;;;;;;5039706;28;20082;-43
2023/04/04 07:27:48;;;;;;;3.58;1.63;;;4.10;98.90;;;;;;5039301;28;20056;-42
2023/04/04 07:30:14;;;;;;;3.03;2.13;;;4.10;98.90;;;;;;5039177;28;20040;-43
2023/04/04 07:32:40;;;;;;;2.90;2.00;;;4.10;98.80;;;;;;5039698;28;20040;-43
2023/04/04 07:35:06;;;;;;;3.95;1.88;;;4.20;98.80;;;;;;5038361;28;20040;-43
2023/04/04 07:37:32;;;;;;;3.33;1.70;;;4.20;98.80;;;;;;5037796;28;20074;-42
2023/04/04 07:39:58;;;;;;;2.03;1.80;;;4.20;98.80;;;;;;5040338;28;20090;-43
2023/04/04 07:42:24;;;;;;;4.15;2.28;;;4.30;98.80;;;;;;5038765;28;20036;-44
2023/04/04 07:44:53;;;;;;;3.22;2.20;;;4.40;98.70;;;;;;5040644;28;20506;-43
2023/04/04 07:47:19;;;;;;;3.38;1.70;;;4.40;98.70;;;;;;5038690;28;20068;-42
2023/04/04 07:49:45;;;;;;;5.35;2.38;;;4.40;98.60;;;;;;5039380;28;20046;-42
2023/04/04 07:52:10;;;;;;;3.85;1.90;;;4.50;98.60;;;;;;5039468;28;20847;-43
2023/04/04 07:54:36;;;;;;;3.35;2.47;;;4.50;98.50;;;;;;5040034;28;20120;-43
2023/04/04 07:57:04;;;;;;;6.72;3.63;;;4.60;98.50;;;;;;5038513;28;20040;-43
2023/04/04 07:59:34;;;;;;;4.55;2.75;;;4.60;98.40;;;;;;5040139;28;20120;-44
2023/04/04 08:02:00;;;;;;;5.95;2.83;;;4.70;98.30;;;;;;5043202;28;20044;-44
2023/04/04 08:04:25;;;;;;;3.50;2.70;;;4.80;98.30;;;;;;5042623;28;20033;-43
2023/04/04 08:06:52;;;;;;;4.15;2.53;;;4.80;98.30;;;;;;5043605;28;20029;-43
2023/04/04 08:09:17;;;;;;;3.70;2.50;;;4.80;98.30;;;;;;5042604;28;20067;-44
2023/04/04 08:11:42;;;;;;;2.53;2.33;;;4.90;98.30;;;;;;5042487;28;20140;-44
2023/04/04 08:14:10;;;;;;;3.88;2.25;;;4.90;98.30;;;;;;5041475;28;20041;-44
2023/04/04 08:16:37;;;;;;;3.90;2.20;;;5.00;98.30;;;;;;5043584;28;20398;-43
2023/04/04 08:19:03;;;;;;;2.63;1.88;;;5.00;98.30;;;;;;5042515;28;20052;-43
2023/04/04 08:21:28;;;;;;;2.90;2.15;;;5.00;98.30;;;;;;5043856;28;20092;-42
2023/04/04 08:23:54;;;;;;;3.30;1.92;;;5.10;98.30;;;;;;5043733;28;20028;-42
2023/04/04 08:26:20;;;;;;;2.53;2.05;;;5.10;98.30;;;;;;5042072;28;20086;-43
2023/04/04 08:28:46;;;;;;;1.90;1.70;;;5.20;98.30;;;;;;5042654;28;20021;-43
2023/04/04 08:31:12;;;;;;;2.65;1.80;;;5.20;98.20;;;;;;5040820;28;20037;-43
2023/04/04 08:33:37;;;;;;;3.15;1.90;;;5.20;98.20;;;;;;5043018;28;20017;-43
2023/04/04 08:36:03;;;;;;;3.58;2.10;;;5.30;98.20;;;;;;5041243;28;20141;-42
2023/04/04 08:38:28;;;;;;;2.22;1.92;;;5.30;98.20;;;;;;5041849;28;20033;-43
2023/04/04 08:40:54;;;;;;;3.40;2.00;;;5.30;98.10;;;;;;5042706;28;20210;-43
2023/04/04 08:43:22;;;;;;;2.55;1.75;;;5.40;98.10;;;;;;5041921;28;20024;-44
2023/04/04 08:45:49;;;;;;;3.92;2.58;;;5.50;98.10;;;;;;5031198;28;20028;-42
2023/04/04 08:48:16;;;;;;;3.03;1.60;;;5.60;98.00;;;;;;5038936;28;20056;-43
2023/04/04 08:50:42;;;;;;;2.35;1.58;;;5.50;97.90;;;;;;5041895;28;20025;-43
2023/04/04 08:53:10;;;;;;;2.25;2.00;;;5.60;97.90;;;;;;5041064;28;20056;-42
2023/04/04 08:55:37;;;;;;;2.78;2.00;;;5.70;97.90;;;;;;5042092;28;20070;-43
2023/04/04 08:58:02;;;;;;;3.80;2.17;;;5.70;97.80;;;;;;5041941;28;20032;-43
2023/04/04 09:00:28;;;;;;;2.05;1.80;;;5.80;97.70;;;;;;5041709;28;20514;-42
2023/04/04 09:03:05;;;;;;;4.97;2.17;;;5.90;97.60;;;;;;5042239;28;20039;-42
2023/04/04 09:05:31;;;;;;;2.97;2.30;;;5.90;97.50;;;;;;5041881;28;20118;-43
2023/04/04 09:07:57;;;;;;;4.40;2.40;;;6.00;97.40;;;;;;5041890;28;20472;-43
2023/04/04 09:10:23;;;;;;;3.72;2.28;;;6.10;97.30;;;;;;5041417;28;20106;-43
2023/04/04 09:12:56;;;;;;;4.03;2.10;;;6.10;97.10;;;;;;5041423;28;20044;-43
2023/04/04 09:15:22;;;;;;;3.95;2.00;;;6.20;96.90;;;;;;5040102;28;20337;-42
2023/04/04 09:17:47;;;;;;;4.40;1.83;;;6.30;96.90;;;;;;5042093;28;20025;-43
2023/04/04 09:20:32;;;;;;;4.43;2.15;;;6.30;96.70;;;;;;5040679;28;20048;-43
2023/04/04 09:22:57;;;;;;;2.63;1.60;;;6.40;96.70;;;;;;5042178;28;20036;-43
2023/04/04 09:25:23;;;;;;;3.05;1.80;;;6.50;96.60;;;;;;5041073;28;20045;-42
2023/04/04 09:27:48;;;;;;;3.20;2.22;;;6.50;96.50;;;;;;5040622;28;20628;-43
2023/04/04 09:30:14;;;;;;;2.55;1.60;;;6.50;96.40;;;;;;5040714;28;20460;-43
2023/04/04 09:32:40;;;;;;;2.25;1.80;;;6.60;96.40;;;;;;5041469;28;20045;-43
2023/04/04 09:35:06;;;;;;;3.20;1.88;;;6.60;96.20;;;;;;5040145;28;20083;-43
2023/04/04 09:37:32;;;;;;;3.80;2.00;;;6.70;96.20;;;;;;5041184;28;20032;-42
2023/04/04 09:39:57;;;;;;;2.40;1.83;;;6.70;96.10;;;;;;5040713;28;20029;-42
2023/04/04 09:42:23;;;;;;;4.38;1.60;;;6.80;95.90;;;;;;5040069;28;20121;-43
2023/04/04 09:44:53;;;;;;;3.22;2.00;;;6.90;95.80;;;;;;5042099;28;20060;-43
2023/04/04 09:47:23;;;;;;;4.88;2.30;;;6.90;95.60;;;;;;5040855;28;20606;-43
2023/04/04 09:49:49;;;;;;;5.25;2.28;;;7.00;95.40;;;;;;5040796;28;20560;-42
2023/04/04 09:52:19;;;;;;;4.03;2.20;;;7.00;95.30;;;;;;5040217;28;20116;-42
2023/04/04 09:54:57;;;;;;;3.38;2.00;;;7.10;95.00;;;;;;5041433;28;20626;-42
2023/04/04 09:57:36;;;;;;;3.45;2.50;;;7.10;94.90;;;;;;5036023;28;20864;-43
2023/04/04 10:00:10;;;;;;;3.00;2.40;;;7.20;94.90;;;;;;5040570;28;20108;-44
2023/04/04 10:02:45;;;;;;;3.38;2.30;;;7.30;94.60;;;;;;5040028;28;20579;-43
2023/04/04 10:05:11;;;;;;;5.80;2.08;;;7.30;94.50;;;;;;5032822;28;20021;-43
2023/04/04 10:07:38;;;;;;;5.93;2.22;;;7.40;94.40;;;;;;5035593;28;20028;-44
2023/04/04 10:10:05;;;;;;;2.38;1.95;;;7.40;94.20;;;;;;5040342;28;20033;-44
2023/04/04 10:12:31;;;;;;;2.88;1.48;;;7.50;94.10;;;;;;5040333;28;20087;-43
2023/04/04 10:15:01;;;;;;;4.20;2.08;;;7.50;94.20;;;;;;5041037;28;20040;-43
2023/04/04 10:17:35;;;;;;;4.22;1.80;;;7.50;94.10;;;;;;5039583;28;20125;-43
2023/04/04 10:20:05;;;;;;;3.55;2.08;;;7.60;94.10;;;;;;5041304;28;20363;-42
2023/04/04 10:22:31;;;;;;;5.55;2.70;;;7.60;94.00;;;;;;5040500;28;20029;-43
2023/04/04 10:24:58;;;;;;;4.95;2.38;;;7.70;93.90;;;;;;5040199;28;20021;-44
2023/04/04 10:27:24;;;;;;;4.82;2.30;;;7.70;93.60;;;;;;5040626;28;20028;-42
2023/04/04 10:29:50;;;;;;;3.05;2.00;;;7.80;93.40;;;;;;5041000;28;20021;-44
2023/04/04 10:32:23;;;;;;;4.13;2.05;;;7.80;93.30;;;;;;5039146;28;20040;-43
2023/04/04 10:34:55;;;;;;;3.75;2.10;;;7.90;93.40;;;;;;5041233;28;20025;-42
2023/04/04 10:37:26;;;;;;;3.10;1.90;;;7.90;93.30;;;;;;5040426;28;20029;-42
2023/04/04 10:40:04;;;;;;;3.72;1.85;;;8.00;93.20;;;;;;5040316;28;20044;-42
2023/04/04 10:42:37;;;;;;;2.92;2.10;;;8.10;93.20;;;;;;5041313;28;20029;-42
2023/04/04 10:45:06;;;;;;;3.15;1.85;;;8.10;93.10;;;;;;5040364;28;20751;-44
2023/04/04 10:47:32;;;;;;;3.70;2.25;;;8.10;93.00;;;;;;5040848;28;20052;-43
2023/04/04 10:49:58;;;;;;;4.22;2.33;;;8.10;92.90;;;;;;5040281;28;20033;-44
2023/04/04 10:52:27;;;;;;;5.40;2.38;;;8.20;93.00;;;;;;5039148;28;20037;-43
2023/04/04 10:54:56;;;;;;;4.00;2.20;;;8.20;92.80;;;;;;5041076;28;20104;-42
2023/04/04 10:57:22;;;;;;;3.58;1.80;;;8.20;92.70;;;;;;5040320;28;20311;-42
2023/04/04 11:00:08;;;;;;;4.82;2.22;;;8.30;92.80;;;;;;5040164;28;20592;-42
2023/04/04 11:02:53;;;;;;;3.22;2.20;;;8.30;92.80;;;;;;5040531;28;20108;-44
2023/04/04 11:05:24;;;;;;;3.70;2.30;;;8.40;92.80;;;;;;5040154;28;20044;-42
2023/04/04 11:08:12;;;;;;;4.30;2.20;;;8.40;92.60;;;;;;5040667;28;20040;-42
2023/04/04 11:10:42;;;;;;;4.10;2.40;;;8.50;92.50;;;;;;5030104;28;20384;-43
2023/04/04 11:13:15;;;;;;;3.83;2.38;;;8.50;92.40;;;;;;5039222;28;20068;-42
2023/04/04 11:15:55;;;;;;;2.60;2.15;;;8.50;92.30;;;;;;5041059;28;20033;-43
2023/04/04 11:18:42;;;;;;;2.47;1.90;;;8.60;92.30;;;;;;5039655;28;20534;-44
2023/04/04 11:21:17;;;;;;;2.05;1.70;;;8.50;92.30;;;;;;5039442;28;20350;-43
2023/04/04 11:23:48;;;;;;;3.15;2.22;;;8.60;92.30;;;;;;5040604;28;20017;-42
2023/04/04 11:26:33;;;;;;;3.33;2.00;;;8.60;92.30;;;;;;5039942;28;20043;-44
2023/04/04 11:29:08;;;;;;;2.50;1.95;;;8.60;92.20;;;;;;5038919;28;20043;-43
2023/04/04 11:31:38;;;;;;;3.47;2.35;;;8.70;92.30;;;;;;5040353;28;20335;-43
2023/04/04 11:34:08;;;;;;;5.18;2.90;;;8.70;92.20;;;;;;5038744;28;20036;-43
2023/04/04 11:36:36;;;;;;;4.65;2.50;;;8.80;91.50;;;;;;5043023;28;20116;-43
2023/04/04 11:39:06;;;;;;;4.60;2.42;;;8.70;91.40;;;;;;5042555;28;20029;-44
2023/04/04 11:41:52;;;;;;;2.97;2.17;;;8.70;91.50;;;;;;5042074;28;20025;-43
2023/04/04 11:44:20;;;;;;;2.05;1.77;;;8.70;91.70;;;;;;5041916;28;20040;-42
2023/04/04 11:46:46;;;;;;;4.15;1.88;;;8.70;91.70;;;;;;5042375;28;20213;-43
2023/04/04 11:49:16;;;;;;;3.40;1.88;;;8.80;91.80;;;;;;5041273;28;20108;-43
2023/04/04 11:51:41;;;;;;;4.88;2.13;;;8.80;92.20;;;;;;5042845;28;20079;-43
2023/04/04 11:54:16;;;;;;;4.88;2.10;;;8.90;91.90;;;;;;5042194;28;20751;-43
2023/04/04 11:56:44;;;;;;;4.13;2.38;;;9.00;91.90;;;;;;5042188;28;20025;-44
2023/04/04 11:59:16;;;;;;;3.88;2.03;;;9.00;91.90;;;;;;5042730;28;20033;-44
2023/04/04 12:01:43;;;;;;;3.88;1.95;;;9.10;91.90;;;;;;5043645;28;20032;-43
2023/04/04 12:04:09;;;;;;;2.85;2.10;;;9.20;91.90;;;;;;5042513;28;20066;-42
2023/04/04 12:06:36;;;;;;;4.03;1.90;;;9.20;91.80;;;;;;5043859;28;20029;-42
2023/04/04 12:09:02;;;;;;;4.00;2.17;;;9.20;91.80;;;;;;5042783;28;20039;-42
2023/04/04 12:11:29;;;;;;;2.38;1.90;;;9.30;91.70;;;;;;5042962;28;20029;-42
2023/04/04 12:13:59;;;;;;;2.67;1.83;;;9.30;91.70;;;;;;5043389;28;20689;-43
2023/04/04 12:16:28;;;;;;;3.92;1.65;;;9.30;91.70;;;;;;5042268;28;20138;-42
2023/04/04 12:18:59;;;;;;;2.88;1.98;;;9.40;91.70;;;;;;5042824;28;20038;-43
2023/04/04 12:21:25;;;;;;;3.58;1.95;;;9.40;91.60;;;;;;5042871;28;20025;-43
2023/04/04 12:23:51;;;;;;;2.67;1.77;;;9.40;91.60;;;;;;5042578;28;20511;-43
2023/04/04 12:26:17;;;;;;;3.13;2.15;;;9.50;91.60;;;;;;5041687;28;20021;-43
2023/04/04 12:28:44;;;;;;;3.65;1.88;;;9.50;91.30;;;;;;5043163;28;20028;-43
2023/04/04 12:31:11;;;;;;;4.00;2.20;;;9.60;91.20;;;;;;5041635;28;20028;-43
2023/04/04 12:33:40;;;;;;;4.03;1.98;;;9.60;91.20;;;;;;5042856;28;20033;-43
2023/04/04 12:36:05;;;;;;;4.05;2.20;;;9.70;91.10;;;;;;5041747;28;20500;-43
2023/04/04 12:38:33;;;;;;;4.15;2.60;;;9.70;90.90;;;;;;5042019;28;20025;-44
2023/04/04 12:40:59;;;;;;;2.75;2.08;;;9.80;90.70;;;;;;5042425;28;20132;-43
2023/04/04 12:43:28;;;;;;;2.95;2.00;;;9.90;90.70;;;;;;5042283;28;20013;-43
2023/04/04 12:45:57;;;;;;;5.35;2.13;;;10.00;90.60;;;;;;5040172;28;20090;-43
2023/04/04 12:48:31;;;;;;;2.83;1.98;;;10.00;90.50;;;;;;5042576;28;20365;-43
2023/04/04 12:50:59;;;;;;;3.72;2.10;;;10.10;90.40;;;;;;5043038;28;20029;-42
2023/04/04 12:53:26;;;;;;;3.90;2.20;;;10.10;90.20;;;;;;5042046;28;20115;-43
2023/04/04 12:55:53;;;;;;;2.90;2.00;;;10.10;90.10;;;;;;5043868;28;20013;-42
2023/04/04 12:58:21;;;;;;;3.22;2.42;;;10.20;90.00;;;;;;5041357;28;20890;-43